FDX564 KONT-KMEM
Flight info
| Callsign | FDX564 |
|---|---|
| Flight time | 2h 56m |
| Altitude | 35000 |
| Route | RAJEE4 AVRRY LANCY DRK KA30Q KA33U KA33Y NOSEW IRW LITTR HOBRK4 |
| Aircraft | MD11/H-SDE1E2E3FGHIJ2J3J4J5M1RWXY/LB1D1 |
Departure
| Time | 2026-05-04 11:17 |
|---|---|
| Airport | Ontario International Airport (KONT) |
Arrival
| Time | 2026-05-04 14:14 |
|---|---|
| Airport | Memphis International Airport (KMEM) |
| Time | Latitude | Longitude | Altitude | Speed | Heading |
|---|---|---|---|---|---|
| 2026-05-04 11:05 | 34.05954 | -117.62020 | 952 ft | 0 kts | 360° |
| 2026-05-04 11:10 | 34.05871 | -117.61932 | 951 ft | 0 kts | 270° |
| 2026-05-04 11:13 | 34.05871 | -117.61944 | 951 ft | 5 kts | 270° |
| 2026-05-04 11:13 | 34.05871 | -117.62011 | 953 ft | 6 kts | 270° |
| 2026-05-04 11:13 | 34.05871 | -117.62054 | 953 ft | 5 kts | 270° |
| 2026-05-04 11:13 | 34.05870 | -117.62128 | 953 ft | 12 kts | 268° |
| 2026-05-04 11:14 | 34.05853 | -117.62181 | 952 ft | 8 kts | 222° |
| 2026-05-04 11:14 | 34.05822 | -117.62199 | 952 ft | 3 kts | 216° |
| 2026-05-04 11:14 | 34.05796 | -117.62227 | 952 ft | 7 kts | 225° |
| 2026-05-04 11:16 | 34.05690 | -117.62168 | 953 ft | 11 kts | 91° |
| 2026-05-04 11:16 | 34.05687 | -117.61706 | 951 ft | 97 kts | 90° |
| 2026-05-04 11:16 | 34.05689 | -117.60578 | 954 ft | 168 kts | 90° |
| 2026-05-04 11:17 | 34.05699 | -117.59052 | 1382 ft | 180 kts | 92° |
| 2026-05-04 11:17 | 34.05636 | -117.57546 | 2252 ft | 181 kts | 94° |
| 2026-05-04 11:19 | 33.99159 | -117.51993 | 5061 ft | 264 kts | 186° |
| 2026-05-04 11:19 | 33.97305 | -117.52247 | 5629 ft | 268 kts | 186° |
| 2026-05-04 11:19 | 33.95413 | -117.52507 | 6058 ft | 271 kts | 185° |
| 2026-05-04 11:19 | 33.93555 | -117.52742 | 6433 ft | 267 kts | 182° |
| 2026-05-04 11:20 | 33.91722 | -117.52527 | 6831 ft | 268 kts | 163° |
| 2026-05-04 11:20 | 33.90026 | -117.51547 | 6997 ft | 270 kts | 150° |
| 2026-05-04 11:20 | 33.88479 | -117.50303 | 7023 ft | 271 kts | 147° |
| 2026-05-04 11:20 | 33.86933 | -117.48983 | 7024 ft | 272 kts | 147° |
| 2026-05-04 11:22 | 33.75944 | -117.39643 | 8492 ft | 277 kts | 147° |
| 2026-05-04 11:22 | 33.74358 | -117.38306 | 9288 ft | 279 kts | 147° |
| 2026-05-04 11:23 | 33.72831 | -117.36840 | 10049 ft | 285 kts | 139° |
| 2026-05-04 11:23 | 33.71513 | -117.34937 | 10244 ft | 312 kts | 124° |
| 2026-05-04 11:24 | 33.69274 | -117.17165 | 13157 ft | 384 kts | 100° |
| 2026-05-04 11:25 | 33.68993 | -117.13968 | 13869 ft | 387 kts | 100° |
| 2026-05-04 11:25 | 33.68698 | -117.10736 | 14410 ft | 392 kts | 101° |
| 2026-05-04 11:25 | 33.68391 | -117.07460 | 14930 ft | 397 kts | 101° |
| 2026-05-04 11:26 | 33.67754 | -117.00788 | 15997 ft | 407 kts | 101° |
| 2026-05-04 11:27 | 33.65349 | -116.76057 | 19178 ft | 446 kts | 102° |
| 2026-05-04 11:28 | 33.64979 | -116.72331 | 19575 ft | 452 kts | 102° |
| 2026-05-04 11:28 | 33.64605 | -116.68563 | 19916 ft | 457 kts | 102° |
| 2026-05-04 11:28 | 33.64228 | -116.64754 | 20309 ft | 461 kts | 102° |
| 2026-05-04 11:28 | 33.63849 | -116.60909 | 20694 ft | 466 kts | 102° |
| 2026-05-04 11:29 | 33.63466 | -116.57023 | 21133 ft | 471 kts | 102° |
| 2026-05-04 11:29 | 33.63079 | -116.53106 | 21534 ft | 476 kts | 102° |
| 2026-05-04 11:29 | 33.62685 | -116.49142 | 21889 ft | 481 kts | 102° |
| 2026-05-04 11:29 | 33.62287 | -116.45135 | 22313 ft | 486 kts | 103° |
| 2026-05-04 11:31 | 33.60614 | -116.15929 | 24733 ft | 516 kts | 95° |
| 2026-05-04 11:33 | 33.65943 | -115.86143 | 27043 ft | 544 kts | 67° |
| 2026-05-04 11:33 | 33.67385 | -115.81923 | 27341 ft | 548 kts | 68° |
| 2026-05-04 11:33 | 33.68787 | -115.77655 | 27662 ft | 551 kts | 69° |
| 2026-05-04 11:34 | 33.70161 | -115.73346 | 27984 ft | 554 kts | 69° |
| 2026-05-04 11:34 | 33.71522 | -115.69005 | 28286 ft | 556 kts | 69° |
| 2026-05-04 11:34 | 33.72883 | -115.64635 | 28570 ft | 560 kts | 69° |
| 2026-05-04 11:34 | 33.74242 | -115.60252 | 28907 ft | 561 kts | 69° |
| 2026-05-04 11:35 | 33.75650 | -115.55854 | 29209 ft | 563 kts | 68° |
| 2026-05-04 11:35 | 33.77133 | -115.51490 | 29514 ft | 566 kts | 66° |
| 2026-05-04 11:35 | 33.78654 | -115.47177 | 29784 ft | 569 kts | 65° |
| 2026-05-04 11:35 | 33.80219 | -115.42803 | 30122 ft | 569 kts | 65° |
| 2026-05-04 11:36 | 33.81789 | -115.38428 | 30469 ft | 569 kts | 65° |
| 2026-05-04 11:36 | 33.83348 | -115.34060 | 30826 ft | 569 kts | 65° |
| 2026-05-04 11:36 | 33.84903 | -115.29682 | 31213 ft | 568 kts | 65° |
| 2026-05-04 11:36 | 33.86449 | -115.25306 | 31556 ft | 568 kts | 65° |
| 2026-05-04 11:37 | 33.87986 | -115.20938 | 31894 ft | 567 kts | 65° |
| 2026-05-04 11:37 | 33.89524 | -115.16561 | 32235 ft | 567 kts | 65° |
| 2026-05-04 11:37 | 33.91059 | -115.12185 | 32569 ft | 567 kts | 65° |
| 2026-05-04 11:37 | 33.92591 | -115.07809 | 32899 ft | 566 kts | 65° |
| 2026-05-04 11:38 | 33.94118 | -115.03445 | 33208 ft | 566 kts | 65° |
| 2026-05-04 11:38 | 33.95646 | -114.99073 | 33513 ft | 565 kts | 65° |
| 2026-05-04 11:38 | 33.97170 | -114.94708 | 33835 ft | 565 kts | 65° |
| 2026-05-04 11:38 | 33.98691 | -114.90343 | 34079 ft | 564 kts | 65° |
| 2026-05-04 11:39 | 34.00211 | -114.85979 | 34287 ft | 564 kts | 65° |
| 2026-05-04 11:39 | 34.01725 | -114.81625 | 34520 ft | 564 kts | 65° |
| 2026-05-04 11:40 | 34.10759 | -114.55414 | 34807 ft | 564 kts | 65° |
| 2026-05-04 11:41 | 34.12257 | -114.51035 | 34805 ft | 564 kts | 65° |
| 2026-05-04 11:41 | 34.15260 | -114.42279 | 34809 ft | 564 kts | 65° |
| 2026-05-04 11:42 | 34.18264 | -114.33516 | 34803 ft | 564 kts | 65° |
| 2026-05-04 11:42 | 34.21254 | -114.24768 | 34802 ft | 562 kts | 65° |
| 2026-05-04 11:43 | 34.24231 | -114.16032 | 34804 ft | 562 kts | 65° |
| 2026-05-04 11:43 | 34.27201 | -114.07292 | 34817 ft | 562 kts | 65° |
| 2026-05-04 11:44 | 34.30008 | -113.98462 | 34812 ft | 562 kts | 69° |
| 2026-05-04 11:44 | 34.32469 | -113.89478 | 34813 ft | 564 kts | 70° |
| 2026-05-04 11:45 | 34.34874 | -113.80453 | 34817 ft | 564 kts | 70° |
| 2026-05-04 11:45 | 34.37295 | -113.71487 | 34816 ft | 563 kts | 70° |
| 2026-05-04 11:46 | 34.39742 | -113.62487 | 34834 ft | 563 kts | 70° |
| 2026-05-04 11:46 | 34.42183 | -113.53486 | 34828 ft | 563 kts | 70° |
| 2026-05-04 11:47 | 34.44621 | -113.44462 | 34852 ft | 563 kts | 70° |
| 2026-05-04 11:47 | 34.47046 | -113.35446 | 34845 ft | 563 kts | 70° |
| 2026-05-04 11:48 | 34.49463 | -113.26431 | 34855 ft | 562 kts | 70° |
| 2026-05-04 11:48 | 34.51877 | -113.17399 | 34855 ft | 562 kts | 70° |
| 2026-05-04 11:49 | 34.54280 | -113.08372 | 34862 ft | 562 kts | 70° |
| 2026-05-04 11:49 | 34.56657 | -112.99320 | 34861 ft | 563 kts | 70° |
| 2026-05-04 11:50 | 34.59029 | -112.90281 | 34883 ft | 562 kts | 70° |
| 2026-05-04 11:50 | 34.61409 | -112.81245 | 34892 ft | 562 kts | 70° |
| 2026-05-04 11:51 | 34.63783 | -112.72216 | 34898 ft | 561 kts | 70° |
| 2026-05-04 11:51 | 34.66136 | -112.63236 | 34893 ft | 561 kts | 70° |
| 2026-05-04 11:52 | 34.68493 | -112.54203 | 34893 ft | 561 kts | 70° |
| 2026-05-04 11:52 | 34.70753 | -112.45120 | 34896 ft | 562 kts | 75° |
| 2026-05-04 11:53 | 34.72193 | -112.35773 | 34887 ft | 564 kts | 81° |
| 2026-05-04 11:53 | 34.73285 | -112.26337 | 34896 ft | 564 kts | 81° |
| 2026-05-04 11:55 | 34.77985 | -111.88715 | 35062 ft | 563 kts | 81° |
| 2026-05-04 11:56 | 34.79164 | -111.79288 | 35070 ft | 563 kts | 80° |
| 2026-05-04 11:56 | 34.80323 | -111.69946 | 35074 ft | 561 kts | 81° |
| 2026-05-04 11:57 | 34.81484 | -111.60539 | 35038 ft | 561 kts | 81° |
| 2026-05-04 11:57 | 34.82062 | -111.55836 | 34928 ft | 561 kts | 81° |
| 2026-05-04 11:57 | 34.82636 | -111.51143 | 34946 ft | 562 kts | 81° |
| 2026-05-04 11:58 | 34.83768 | -111.41726 | 34952 ft | 562 kts | 81° |
| 2026-05-04 11:58 | 34.84880 | -111.32315 | 34962 ft | 562 kts | 81° |
| 2026-05-04 11:59 | 34.86002 | -111.22899 | 34960 ft | 562 kts | 81° |
| 2026-05-04 11:59 | 34.87127 | -111.13481 | 34967 ft | 562 kts | 81° |
| 2026-05-04 12:00 | 34.88059 | -111.05638 | 34959 ft | 563 kts | 81° |
| 2026-05-04 12:00 | 34.89360 | -110.94604 | 35001 ft | 563 kts | 81° |
| 2026-05-04 12:01 | 34.90278 | -110.86755 | 35006 ft | 563 kts | 81° |
| 2026-05-04 12:02 | 34.94081 | -110.53756 | 34933 ft | 561 kts | 81° |
| 2026-05-04 12:03 | 34.95146 | -110.44321 | 34938 ft | 562 kts | 81° |
| 2026-05-04 12:03 | 34.96173 | -110.34943 | 34930 ft | 562 kts | 82° |
| 2026-05-04 12:04 | 34.97216 | -110.25485 | 34926 ft | 562 kts | 81° |
| 2026-05-04 12:04 | 34.98264 | -110.16042 | 34931 ft | 562 kts | 81° |
| 2026-05-04 12:05 | 34.99309 | -110.06579 | 34936 ft | 562 kts | 81° |
| 2026-05-04 12:05 | 35.00403 | -109.97148 | 34935 ft | 562 kts | 80° |
| 2026-05-04 12:06 | 35.01692 | -109.87806 | 34933 ft | 561 kts | 78° |
| 2026-05-04 12:06 | 35.03042 | -109.78425 | 34932 ft | 561 kts | 78° |
| 2026-05-04 12:07 | 35.04373 | -109.69034 | 34937 ft | 561 kts | 79° |
| 2026-05-04 12:07 | 35.05680 | -109.59654 | 34941 ft | 561 kts | 79° |
| 2026-05-04 12:08 | 35.06977 | -109.50268 | 34940 ft | 561 kts | 79° |
| 2026-05-04 12:08 | 35.08269 | -109.40868 | 34937 ft | 561 kts | 79° |
| 2026-05-04 12:09 | 35.09552 | -109.31486 | 34937 ft | 560 kts | 79° |
| 2026-05-04 12:09 | 35.10823 | -109.22134 | 34920 ft | 560 kts | 79° |
| 2026-05-04 12:10 | 35.12090 | -109.12752 | 34925 ft | 560 kts | 79° |
| 2026-05-04 12:10 | 35.13344 | -109.03415 | 34892 ft | 560 kts | 79° |
| 2026-05-04 12:11 | 35.14576 | -108.94016 | 34892 ft | 560 kts | 79° |
| 2026-05-04 12:11 | 35.15799 | -108.84618 | 34892 ft | 560 kts | 79° |
| 2026-05-04 12:12 | 35.17033 | -108.75217 | 34903 ft | 560 kts | 79° |
| 2026-05-04 12:12 | 35.18265 | -108.65826 | 34882 ft | 559 kts | 79° |
| 2026-05-04 12:14 | 35.23116 | -108.28227 | 34952 ft | 560 kts | 79° |
| 2026-05-04 12:15 | 35.24312 | -108.18808 | 35030 ft | 560 kts | 79° |
| 2026-05-04 12:15 | 35.25498 | -108.09396 | 35109 ft | 560 kts | 79° |
| 2026-05-04 12:16 | 35.26677 | -107.99984 | 35167 ft | 560 kts | 79° |
| 2026-05-04 12:16 | 35.27821 | -107.90553 | 35184 ft | 560 kts | 79° |
| 2026-05-04 12:17 | 35.28963 | -107.81179 | 34943 ft | 560 kts | 79° |
| 2026-05-04 12:17 | 35.30119 | -107.71755 | 34961 ft | 559 kts | 79° |
| 2026-05-04 12:18 | 35.31268 | -107.62358 | 34959 ft | 558 kts | 79° |
| 2026-05-04 12:18 | 35.32406 | -107.52974 | 34979 ft | 557 kts | 79° |
| 2026-05-04 12:19 | 35.33540 | -107.43563 | 35002 ft | 558 kts | 79° |
| 2026-05-04 12:19 | 35.34665 | -107.34167 | 35003 ft | 557 kts | 79° |
| 2026-05-04 12:20 | 35.35779 | -107.24785 | 35016 ft | 556 kts | 79° |
| 2026-05-04 12:20 | 35.36885 | -107.15413 | 35040 ft | 556 kts | 79° |
| 2026-05-04 12:21 | 35.37986 | -107.06026 | 35050 ft | 557 kts | 79° |
| 2026-05-04 12:21 | 35.39070 | -106.96621 | 35051 ft | 556 kts | 79° |
| 2026-05-04 12:22 | 35.40125 | -106.87242 | 35058 ft | 556 kts | 79° |
| 2026-05-04 12:22 | 35.41192 | -106.77841 | 35058 ft | 556 kts | 79° |
| 2026-05-04 12:23 | 35.42263 | -106.68443 | 35063 ft | 556 kts | 79° |
| 2026-05-04 12:23 | 35.43327 | -106.59054 | 35036 ft | 556 kts | 79° |
| 2026-05-04 12:24 | 35.44378 | -106.49716 | 35032 ft | 556 kts | 79° |
| 2026-05-04 12:24 | 35.45422 | -106.40353 | 35055 ft | 556 kts | 79° |
| 2026-05-04 12:25 | 35.46463 | -106.30950 | 35090 ft | 556 kts | 79° |
| 2026-05-04 12:25 | 35.47497 | -106.21551 | 35126 ft | 555 kts | 79° |
| 2026-05-04 12:26 | 35.48521 | -106.12165 | 35154 ft | 555 kts | 79° |
| 2026-05-04 12:26 | 35.49539 | -106.02775 | 35156 ft | 555 kts | 79° |
| 2026-05-04 12:27 | 35.50259 | -105.93321 | 35011 ft | 557 kts | 86° |
| 2026-05-04 12:27 | 35.50398 | -105.83808 | 35021 ft | 557 kts | 88° |
| 2026-05-04 12:28 | 35.50449 | -105.74366 | 35021 ft | 557 kts | 88° |
| 2026-05-04 12:28 | 35.50553 | -105.64862 | 35020 ft | 557 kts | 87° |
| 2026-05-04 12:29 | 35.50686 | -105.55355 | 35023 ft | 556 kts | 87° |
| 2026-05-04 12:29 | 35.50814 | -105.45872 | 35041 ft | 556 kts | 87° |
| 2026-05-04 12:30 | 35.50932 | -105.36378 | 35037 ft | 556 kts | 87° |
| 2026-05-04 12:30 | 35.51041 | -105.26879 | 35104 ft | 557 kts | 87° |
| 2026-05-04 12:31 | 35.51141 | -105.17383 | 35108 ft | 556 kts | 87° |
| 2026-05-04 12:31 | 35.51234 | -105.07894 | 35110 ft | 556 kts | 87° |
| 2026-05-04 12:32 | 35.51352 | -104.93663 | 34952 ft | 556 kts | 88° |
| 2026-05-04 12:33 | 35.51396 | -104.84162 | 34953 ft | 556 kts | 88° |
| 2026-05-04 12:33 | 35.51451 | -104.74667 | 34945 ft | 556 kts | 88° |
| 2026-05-04 12:34 | 35.51510 | -104.65195 | 34946 ft | 554 kts | 88° |
| 2026-05-04 12:34 | 35.51564 | -104.55790 | 34937 ft | 555 kts | 88° |
| 2026-05-04 12:35 | 35.51609 | -104.46309 | 34935 ft | 556 kts | 88° |
| 2026-05-04 12:35 | 35.51647 | -104.36811 | 34934 ft | 556 kts | 88° |
| 2026-05-04 12:36 | 35.51677 | -104.27324 | 34934 ft | 556 kts | 88° |
| 2026-05-04 12:36 | 35.51699 | -104.17836 | 34934 ft | 556 kts | 88° |
| 2026-05-04 12:37 | 35.51714 | -104.08344 | 34931 ft | 555 kts | 88° |
| 2026-05-04 12:37 | 35.51722 | -103.98861 | 34932 ft | 555 kts | 88° |
| 2026-05-04 12:38 | 35.51706 | -103.89384 | 34940 ft | 555 kts | 88° |
| 2026-05-04 12:38 | 35.51671 | -103.79912 | 34938 ft | 555 kts | 88° |
| 2026-05-04 12:39 | 35.51647 | -103.70449 | 34946 ft | 554 kts | 88° |
| 2026-05-04 12:39 | 35.51626 | -103.61010 | 34948 ft | 554 kts | 88° |
| 2026-05-04 12:40 | 35.51598 | -103.51547 | 34936 ft | 555 kts | 88° |
| 2026-05-04 12:40 | 35.51562 | -103.42150 | 34943 ft | 553 kts | 88° |
| 2026-05-04 12:41 | 35.51517 | -103.32711 | 34928 ft | 553 kts | 88° |
| 2026-05-04 12:41 | 35.51466 | -103.23272 | 34921 ft | 553 kts | 88° |
| 2026-05-04 12:42 | 35.51407 | -103.13799 | 34953 ft | 555 kts | 88° |
| 2026-05-04 12:42 | 35.51340 | -103.04335 | 34956 ft | 554 kts | 88° |
| 2026-05-04 12:43 | 35.51266 | -102.94878 | 34956 ft | 553 kts | 88° |
| 2026-05-04 12:43 | 35.51162 | -102.85433 | 34966 ft | 554 kts | 89° |
| 2026-05-04 12:44 | 35.51049 | -102.75989 | 34982 ft | 553 kts | 88° |
| 2026-05-04 12:44 | 35.50947 | -102.66545 | 34960 ft | 552 kts | 88° |
| 2026-05-04 12:45 | 35.50845 | -102.57122 | 34956 ft | 552 kts | 88° |
| 2026-05-04 12:45 | 35.50737 | -102.47760 | 34955 ft | 552 kts | 88° |
| 2026-05-04 12:46 | 35.50619 | -102.38327 | 34964 ft | 552 kts | 89° |
| 2026-05-04 12:46 | 35.50494 | -102.28903 | 34948 ft | 551 kts | 89° |
| 2026-05-04 12:47 | 35.50361 | -102.19486 | 34948 ft | 551 kts | 89° |
| 2026-05-04 12:47 | 35.50222 | -102.10086 | 34949 ft | 552 kts | 89° |
| 2026-05-04 12:48 | 35.50087 | -102.00664 | 34951 ft | 551 kts | 88° |
| 2026-05-04 12:48 | 35.50171 | -101.91289 | 34962 ft | 548 kts | 86° |
| 2026-05-04 12:49 | 35.50357 | -101.83521 | 34977 ft | 548 kts | 85° |
| 2026-05-04 12:49 | 35.50588 | -101.74166 | 34944 ft | 548 kts | 85° |
| 2026-05-04 12:50 | 35.50793 | -101.64816 | 34955 ft | 548 kts | 85° |
| 2026-05-04 12:50 | 35.50980 | -101.55479 | 34953 ft | 546 kts | 85° |
| 2026-05-04 12:51 | 35.51158 | -101.46164 | 34950 ft | 545 kts | 86° |
| 2026-05-04 12:51 | 35.51331 | -101.36858 | 34950 ft | 546 kts | 86° |
| 2026-05-04 12:52 | 35.51495 | -101.27599 | 34965 ft | 545 kts | 86° |
| 2026-05-04 12:52 | 35.51653 | -101.18318 | 35011 ft | 543 kts | 86° |
| 2026-05-04 12:53 | 35.51803 | -101.09067 | 35027 ft | 542 kts | 86° |
| 2026-05-04 12:53 | 35.51894 | -100.99804 | 35030 ft | 543 kts | 88° |
| 2026-05-04 12:54 | 35.51637 | -100.90525 | 35026 ft | 545 kts | 90° |
| 2026-05-04 12:54 | 35.51269 | -100.81245 | 35011 ft | 544 kts | 90° |
| 2026-05-04 12:55 | 35.50924 | -100.71988 | 34990 ft | 544 kts | 90° |
| 2026-05-04 12:55 | 35.50597 | -100.62706 | 34964 ft | 545 kts | 90° |
| 2026-05-04 12:56 | 35.50267 | -100.53413 | 34962 ft | 544 kts | 90° |
| 2026-05-04 12:56 | 35.49930 | -100.44181 | 34958 ft | 540 kts | 90° |
| 2026-05-04 12:57 | 35.49589 | -100.35049 | 34960 ft | 539 kts | 90° |
| 2026-05-04 12:57 | 35.49239 | -100.25841 | 34963 ft | 540 kts | 90° |
| 2026-05-04 12:58 | 35.48881 | -100.16627 | 34967 ft | 539 kts | 90° |
| 2026-05-04 12:58 | 35.48517 | -100.07458 | 34964 ft | 537 kts | 90° |
| 2026-05-04 12:59 | 35.48142 | -99.98306 | 34965 ft | 536 kts | 90° |
| 2026-05-04 12:59 | 35.47736 | -99.89161 | 34965 ft | 537 kts | 90° |
| 2026-05-04 13:00 | 35.47338 | -99.80013 | 34982 ft | 537 kts | 90° |
| 2026-05-04 13:00 | 35.46946 | -99.70887 | 34983 ft | 534 kts | 90° |
| 2026-05-04 13:01 | 35.46555 | -99.61843 | 34999 ft | 533 kts | 90° |
| 2026-05-04 13:01 | 35.46155 | -99.52764 | 35007 ft | 534 kts | 90° |
| 2026-05-04 13:02 | 35.45746 | -99.43645 | 35012 ft | 534 kts | 90° |
| 2026-05-04 13:02 | 35.45330 | -99.34564 | 35007 ft | 533 kts | 90° |
| 2026-05-04 13:03 | 35.44908 | -99.25486 | 35012 ft | 533 kts | 90° |
| 2026-05-04 13:03 | 35.44480 | -99.16406 | 35018 ft | 533 kts | 91° |
| 2026-05-04 13:04 | 35.44048 | -99.07395 | 35023 ft | 533 kts | 91° |
| 2026-05-04 13:04 | 35.43605 | -98.98329 | 34984 ft | 531 kts | 91° |
| 2026-05-04 13:05 | 35.43129 | -98.89279 | 34989 ft | 532 kts | 91° |
| 2026-05-04 13:05 | 35.42655 | -98.80231 | 34990 ft | 532 kts | 91° |
| 2026-05-04 13:06 | 35.42190 | -98.71162 | 35027 ft | 534 kts | 91° |
| 2026-05-04 13:06 | 35.41722 | -98.62099 | 35014 ft | 532 kts | 91° |
| 2026-05-04 13:07 | 35.41248 | -98.53065 | 35012 ft | 531 kts | 91° |
| 2026-05-04 13:07 | 35.40768 | -98.44041 | 35006 ft | 531 kts | 91° |
| 2026-05-04 13:08 | 35.40279 | -98.34993 | 34999 ft | 531 kts | 91° |
| 2026-05-04 13:08 | 35.39785 | -98.25976 | 35007 ft | 529 kts | 91° |
| 2026-05-04 13:09 | 35.39285 | -98.16984 | 35011 ft | 528 kts | 91° |
| 2026-05-04 13:09 | 35.38783 | -98.08049 | 35016 ft | 528 kts | 91° |
| 2026-05-04 13:10 | 35.38274 | -97.99121 | 35017 ft | 528 kts | 91° |
| 2026-05-04 13:10 | 35.37734 | -97.90134 | 35006 ft | 528 kts | 92° |
| 2026-05-04 13:11 | 35.37185 | -97.81168 | 35008 ft | 527 kts | 92° |
| 2026-05-04 13:11 | 35.36645 | -97.72216 | 35026 ft | 527 kts | 92° |
| 2026-05-04 13:12 | 35.35884 | -97.63276 | 35027 ft | 528 kts | 95° |
| 2026-05-04 13:12 | 35.34954 | -97.54354 | 35025 ft | 528 kts | 95° |
| 2026-05-04 13:13 | 35.34016 | -97.45443 | 35022 ft | 526 kts | 95° |
| 2026-05-04 13:13 | 35.33100 | -97.36591 | 35019 ft | 526 kts | 95° |
| 2026-05-04 13:14 | 35.32181 | -97.27696 | 35011 ft | 527 kts | 95° |
| 2026-05-04 13:14 | 35.31255 | -97.18803 | 35019 ft | 527 kts | 95° |
| 2026-05-04 13:15 | 35.30320 | -97.09889 | 35022 ft | 528 kts | 95° |
| 2026-05-04 13:15 | 35.29378 | -97.00992 | 35020 ft | 528 kts | 95° |
| 2026-05-04 13:16 | 35.28427 | -96.92063 | 35026 ft | 529 kts | 95° |
| 2026-05-04 13:16 | 35.27468 | -96.83125 | 35044 ft | 529 kts | 95° |
| 2026-05-04 13:17 | 35.26506 | -96.74223 | 35021 ft | 527 kts | 95° |
| 2026-05-04 13:17 | 35.25524 | -96.65354 | 35024 ft | 526 kts | 95° |
| 2026-05-04 13:18 | 35.24527 | -96.56488 | 35019 ft | 526 kts | 95° |
| 2026-05-04 13:18 | 35.23545 | -96.47665 | 35011 ft | 526 kts | 95° |
| 2026-05-04 13:19 | 35.22554 | -96.38745 | 35026 ft | 525 kts | 95° |
| 2026-05-04 13:19 | 35.21574 | -96.29972 | 35016 ft | 524 kts | 95° |
| 2026-05-04 13:20 | 35.20580 | -96.21143 | 35018 ft | 525 kts | 95° |
| 2026-05-04 13:20 | 35.19578 | -96.12296 | 35021 ft | 525 kts | 96° |
| 2026-05-04 13:21 | 35.18568 | -96.03454 | 35028 ft | 524 kts | 96° |
| 2026-05-04 13:21 | 35.17557 | -95.94650 | 35025 ft | 522 kts | 96° |
| 2026-05-04 13:22 | 35.16539 | -95.85851 | 35026 ft | 523 kts | 96° |
| 2026-05-04 13:22 | 35.15515 | -95.77046 | 35036 ft | 523 kts | 96° |
| 2026-05-04 13:23 | 35.14486 | -95.68297 | 35047 ft | 523 kts | 96° |
| 2026-05-04 13:23 | 35.13420 | -95.59512 | 35031 ft | 521 kts | 96° |
| 2026-05-04 13:24 | 35.12365 | -95.50748 | 35031 ft | 522 kts | 96° |
| 2026-05-04 13:24 | 35.11318 | -95.41990 | 35032 ft | 523 kts | 96° |
| 2026-05-04 13:25 | 35.09730 | -95.28782 | 35045 ft | 523 kts | 96° |
| 2026-05-04 13:25 | 35.08665 | -95.20004 | 35038 ft | 522 kts | 96° |
| 2026-05-04 13:26 | 35.07597 | -95.11254 | 35040 ft | 522 kts | 96° |
| 2026-05-04 13:26 | 35.06519 | -95.02474 | 35039 ft | 522 kts | 96° |
| 2026-05-04 13:27 | 35.05442 | -94.93764 | 35049 ft | 521 kts | 96° |
| 2026-05-04 13:27 | 35.04355 | -94.85019 | 35038 ft | 521 kts | 96° |
| 2026-05-04 13:28 | 35.03261 | -94.76274 | 35035 ft | 521 kts | 97° |
| 2026-05-04 13:28 | 35.02158 | -94.67547 | 35035 ft | 520 kts | 97° |
| 2026-05-04 13:29 | 35.01025 | -94.58827 | 35036 ft | 521 kts | 97° |
| 2026-05-04 13:29 | 34.99900 | -94.50105 | 35039 ft | 520 kts | 96° |
| 2026-05-04 13:30 | 34.98783 | -94.41399 | 35040 ft | 520 kts | 96° |
| 2026-05-04 13:30 | 34.97663 | -94.32695 | 35033 ft | 520 kts | 96° |
| 2026-05-04 13:31 | 34.96535 | -94.23979 | 35049 ft | 520 kts | 97° |
| 2026-05-04 13:31 | 34.95399 | -94.15263 | 35059 ft | 521 kts | 97° |
| 2026-05-04 13:32 | 34.94258 | -94.06565 | 35055 ft | 519 kts | 97° |
| 2026-05-04 13:32 | 34.93114 | -93.97886 | 35042 ft | 519 kts | 97° |
| 2026-05-04 13:33 | 34.91962 | -93.89196 | 35038 ft | 519 kts | 97° |
| 2026-05-04 13:33 | 34.90804 | -93.80512 | 35065 ft | 519 kts | 97° |
| 2026-05-04 13:34 | 34.89639 | -93.71828 | 35055 ft | 518 kts | 97° |
| 2026-05-04 13:34 | 34.88453 | -93.63184 | 35055 ft | 517 kts | 97° |
| 2026-05-04 13:35 | 34.86670 | -93.50263 | 35057 ft | 518 kts | 97° |
| 2026-05-04 13:36 | 34.85486 | -93.41613 | 35044 ft | 518 kts | 97° |
| 2026-05-04 13:36 | 34.84297 | -93.32955 | 35061 ft | 518 kts | 97° |
| 2026-05-04 13:37 | 34.83101 | -93.24300 | 35059 ft | 518 kts | 97° |
| 2026-05-04 13:37 | 34.82103 | -93.17116 | 35066 ft | 518 kts | 97° |
| 2026-05-04 13:38 | 34.80896 | -93.08471 | 35071 ft | 518 kts | 97° |
| 2026-05-04 13:38 | 34.79483 | -92.98413 | 35073 ft | 517 kts | 97° |
| 2026-05-04 13:39 | 34.78464 | -92.91190 | 35082 ft | 517 kts | 97° |
| 2026-05-04 13:39 | 34.77240 | -92.82567 | 35089 ft | 517 kts | 97° |
| 2026-05-04 13:40 | 34.76014 | -92.73962 | 35084 ft | 517 kts | 97° |
| 2026-05-04 13:40 | 34.74774 | -92.65402 | 35083 ft | 518 kts | 98° |
| 2026-05-04 13:41 | 34.73505 | -92.56791 | 35071 ft | 516 kts | 97° |
| 2026-05-04 13:41 | 34.72251 | -92.48202 | 35066 ft | 516 kts | 97° |
| 2026-05-04 13:42 | 34.70371 | -92.35303 | 35086 ft | 516 kts | 97° |
| 2026-05-04 13:42 | 34.69113 | -92.26721 | 35094 ft | 516 kts | 97° |
| 2026-05-04 13:43 | 34.67861 | -92.18153 | 35091 ft | 514 kts | 97° |
| 2026-05-04 13:43 | 34.66753 | -92.09575 | 35093 ft | 514 kts | 96° |
| 2026-05-04 13:44 | 34.65717 | -92.00987 | 35097 ft | 514 kts | 95° |
| 2026-05-04 13:44 | 34.64675 | -91.92388 | 35104 ft | 514 kts | 96° |
| 2026-05-04 13:45 | 34.63625 | -91.83864 | 35111 ft | 513 kts | 96° |
| 2026-05-04 13:45 | 34.63094 | -91.79586 | 34929 ft | 508 kts | 96° |
| 2026-05-04 13:45 | 34.62571 | -91.75406 | 34663 ft | 495 kts | 96° |
| 2026-05-04 13:46 | 34.62055 | -91.71286 | 34102 ft | 493 kts | 96° |
| 2026-05-04 13:46 | 34.61542 | -91.67189 | 33429 ft | 489 kts | 96° |
| 2026-05-04 13:46 | 34.61032 | -91.63116 | 32797 ft | 488 kts | 96° |
| 2026-05-04 13:46 | 34.60519 | -91.59029 | 32219 ft | 488 kts | 96° |
| 2026-05-04 13:47 | 34.60005 | -91.54951 | 31632 ft | 489 kts | 96° |
| 2026-05-04 13:47 | 34.59491 | -91.50881 | 31063 ft | 489 kts | 96° |
| 2026-05-04 13:47 | 34.58974 | -91.46804 | 30481 ft | 488 kts | 96° |
| 2026-05-04 13:47 | 34.58457 | -91.42740 | 29847 ft | 488 kts | 96° |
| 2026-05-04 13:48 | 34.57937 | -91.38667 | 29199 ft | 488 kts | 96° |
| 2026-05-04 13:48 | 34.57414 | -91.34596 | 28669 ft | 486 kts | 96° |
| 2026-05-04 13:48 | 34.56888 | -91.30594 | 28032 ft | 476 kts | 97° |
| 2026-05-04 13:48 | 34.56369 | -91.26670 | 27392 ft | 465 kts | 97° |
| 2026-05-04 13:49 | 34.55866 | -91.22841 | 26779 ft | 455 kts | 96° |
| 2026-05-04 13:49 | 34.55375 | -91.19084 | 26186 ft | 446 kts | 96° |
| 2026-05-04 13:49 | 34.54893 | -91.15377 | 25588 ft | 442 kts | 96° |
| 2026-05-04 13:49 | 34.54418 | -91.11717 | 25013 ft | 438 kts | 96° |
| 2026-05-04 13:50 | 34.53947 | -91.08088 | 24433 ft | 433 kts | 96° |
| 2026-05-04 13:50 | 34.53479 | -91.04495 | 23847 ft | 429 kts | 96° |
| 2026-05-04 13:50 | 34.53020 | -91.00986 | 23209 ft | 424 kts | 96° |
| 2026-05-04 13:50 | 34.52554 | -90.97430 | 22593 ft | 420 kts | 96° |
| 2026-05-04 13:51 | 34.52103 | -90.93996 | 22033 ft | 415 kts | 96° |
| 2026-05-04 13:51 | 34.51649 | -90.90545 | 21471 ft | 411 kts | 96° |
| 2026-05-04 13:51 | 34.51200 | -90.87143 | 20921 ft | 407 kts | 96° |
| 2026-05-04 13:51 | 34.50754 | -90.83768 | 20376 ft | 403 kts | 96° |
| 2026-05-04 13:52 | 34.50880 | -90.77191 | 19284 ft | 383 kts | 65° |
| 2026-05-04 13:52 | 34.52120 | -90.74414 | 18748 ft | 371 kts | 50° |
| 2026-05-04 13:52 | 34.53731 | -90.71983 | 18181 ft | 368 kts | 45° |
| 2026-05-04 13:53 | 34.55420 | -90.69679 | 17594 ft | 364 kts | 44° |
| 2026-05-04 13:53 | 34.57103 | -90.67396 | 17041 ft | 361 kts | 45° |
| 2026-05-04 13:53 | 34.58749 | -90.65113 | 16521 ft | 358 kts | 45° |
| 2026-05-04 13:54 | 34.61937 | -90.60521 | 16065 ft | 354 kts | 47° |
| 2026-05-04 13:54 | 34.63472 | -90.58184 | 16019 ft | 355 kts | 48° |
| 2026-05-04 13:54 | 34.66503 | -90.53475 | 15892 ft | 354 kts | 49° |
| 2026-05-04 13:55 | 34.68021 | -90.51104 | 15741 ft | 356 kts | 49° |
| 2026-05-04 13:55 | 34.71025 | -90.46405 | 14793 ft | 351 kts | 49° |
| 2026-05-04 13:55 | 34.72511 | -90.44077 | 14305 ft | 348 kts | 49° |
| 2026-05-04 13:56 | 34.73988 | -90.41760 | 13805 ft | 345 kts | 49° |
| 2026-05-04 13:56 | 34.75454 | -90.39460 | 13269 ft | 342 kts | 50° |
| 2026-05-04 13:56 | 34.78348 | -90.34919 | 12442 ft | 335 kts | 50° |
| 2026-05-04 13:57 | 34.79764 | -90.32696 | 12295 ft | 326 kts | 50° |
| 2026-05-04 13:57 | 34.81112 | -90.30574 | 12179 ft | 307 kts | 50° |
| 2026-05-04 13:58 | 34.84938 | -90.24534 | 11972 ft | 300 kts | 50° |
| 2026-05-04 13:58 | 34.87483 | -90.20510 | 11846 ft | 299 kts | 50° |
| 2026-05-04 13:58 | 34.88749 | -90.18506 | 11792 ft | 299 kts | 50° |
| 2026-05-04 13:59 | 34.90026 | -90.16485 | 11406 ft | 301 kts | 50° |
| 2026-05-04 13:59 | 34.91287 | -90.14487 | 11111 ft | 295 kts | 50° |
| 2026-05-04 13:59 | 34.94370 | -90.11422 | 10638 ft | 288 kts | 14° |
| 2026-05-04 14:00 | 34.96280 | -90.11067 | 10472 ft | 269 kts | 1° |
| 2026-05-04 14:00 | 34.99858 | -90.11008 | 10199 ft | 254 kts | 357° |
| 2026-05-04 14:00 | 35.01632 | -90.11004 | 9830 ft | 257 kts | 358° |
| 2026-05-04 14:01 | 35.03429 | -90.10991 | 9313 ft | 258 kts | 357° |
| 2026-05-04 14:01 | 35.05219 | -90.10971 | 8869 ft | 251 kts | 358° |
| 2026-05-04 14:01 | 35.08351 | -90.10917 | 8076 ft | 207 kts | 358° |
| 2026-05-04 14:02 | 35.09782 | -90.10904 | 7951 ft | 205 kts | 356° |
| 2026-05-04 14:02 | 35.11207 | -90.10922 | 7924 ft | 205 kts | 355° |
| 2026-05-04 14:02 | 35.12639 | -90.10946 | 7761 ft | 206 kts | 355° |
| 2026-05-04 14:02 | 35.14065 | -90.10969 | 7502 ft | 204 kts | 355° |
| 2026-05-04 14:03 | 35.15485 | -90.10991 | 7198 ft | 206 kts | 355° |
| 2026-05-04 14:03 | 35.16913 | -90.11013 | 6601 ft | 202 kts | 355° |
| 2026-05-04 14:03 | 35.18325 | -90.11034 | 5945 ft | 203 kts | 354° |
| 2026-05-04 14:03 | 35.19723 | -90.11055 | 5305 ft | 200 kts | 354° |
| 2026-05-04 14:04 | 35.22465 | -90.11096 | 4102 ft | 194 kts | 354° |
| 2026-05-04 14:04 | 35.23850 | -90.11119 | 3624 ft | 202 kts | 356° |
| 2026-05-04 14:04 | 35.25247 | -90.11142 | 3167 ft | 206 kts | 356° |
| 2026-05-04 14:05 | 35.28156 | -90.11186 | 2415 ft | 208 kts | 356° |
| 2026-05-04 14:05 | 35.29599 | -90.11206 | 2281 ft | 206 kts | 356° |
| 2026-05-04 14:05 | 35.31033 | -90.11152 | 2286 ft | 211 kts | 7° |
| 2026-05-04 14:06 | 35.32386 | -90.10492 | 2262 ft | 212 kts | 38° |
| 2026-05-04 14:06 | 35.33243 | -90.09076 | 2304 ft | 207 kts | 73° |
| 2026-05-04 14:06 | 35.33305 | -90.07370 | 2285 ft | 199 kts | 111° |
| 2026-05-04 14:06 | 35.32638 | -90.05939 | 2335 ft | 193 kts | 134° |
| 2026-05-04 14:07 | 35.31743 | -90.04703 | 2282 ft | 193 kts | 138° |
| 2026-05-04 14:07 | 35.30832 | -90.03501 | 2284 ft | 194 kts | 137° |
| 2026-05-04 14:07 | 35.29901 | -90.02293 | 2270 ft | 196 kts | 136° |
| 2026-05-04 14:07 | 35.28964 | -90.01089 | 2252 ft | 196 kts | 137° |
| 2026-05-04 14:08 | 35.28017 | -89.99883 | 2202 ft | 196 kts | 138° |
| 2026-05-04 14:08 | 35.27047 | -89.98728 | 2172 ft | 192 kts | 147° |
| 2026-05-04 14:08 | 35.25875 | -89.98074 | 2188 ft | 184 kts | 176° |
| 2026-05-04 14:08 | 35.24597 | -89.97923 | 2211 ft | 185 kts | 178° |
| 2026-05-04 14:09 | 35.22054 | -89.97668 | 2204 ft | 171 kts | 181° |
| 2026-05-04 14:09 | 35.20915 | -89.97630 | 2178 ft | 162 kts | 182° |
| 2026-05-04 14:10 | 35.18635 | -89.97571 | 2245 ft | 163 kts | 183° |
| 2026-05-04 14:10 | 35.17501 | -89.97548 | 2191 ft | 163 kts | 181° |
| 2026-05-04 14:10 | 35.16364 | -89.97515 | 2229 ft | 164 kts | 181° |
| 2026-05-04 14:10 | 35.15229 | -89.97487 | 2195 ft | 162 kts | 180° |
| 2026-05-04 14:11 | 35.14093 | -89.97461 | 2163 ft | 164 kts | 181° |
| 2026-05-04 14:11 | 35.11829 | -89.97412 | 1688 ft | 162 kts | 181° |
| 2026-05-04 14:11 | 35.10718 | -89.97396 | 1431 ft | 161 kts | 184° |
| 2026-05-04 14:12 | 35.09606 | -89.97383 | 1234 ft | 157 kts | 182° |
| 2026-05-04 14:12 | 35.08509 | -89.97361 | 976 ft | 159 kts | 181° |
| 2026-05-04 14:12 | 35.06314 | -89.97326 | 592 ft | 156 kts | 182° |
| 2026-05-04 14:13 | 35.05219 | -89.97299 | 417 ft | 160 kts | 182° |
| 2026-05-04 14:13 | 35.04170 | -89.97284 | 335 ft | 128 kts | 178° |
| 2026-05-04 14:13 | 35.03461 | -89.97273 | 333 ft | 78 kts | 178° |
| 2026-05-04 14:13 | 35.03030 | -89.97259 | 334 ft | 55 kts | 177° |
| 2026-05-04 14:14 | 35.02691 | -89.97255 | 334 ft | 43 kts | 180° |
| 2026-05-04 14:14 | 35.02428 | -89.97199 | 333 ft | 7 kts | 116° |
| 2026-05-04 14:14 | 35.02421 | -89.97105 | 336 ft | 16 kts | 89° |
| 2026-05-04 14:15 | 35.02563 | -89.97022 | 335 ft | 18 kts | 359° |
| 2026-05-04 14:15 | 35.02917 | -89.97070 | 335 ft | 29 kts | 354° |
| 2026-05-04 14:16 | 35.03408 | -89.97076 | 334 ft | 41 kts | 359° |
| 2026-05-04 14:16 | 35.03694 | -89.97088 | 336 ft | 41 kts | 359° |
| 2026-05-04 14:17 | 35.04221 | -89.97101 | 335 ft | 35 kts | 359° |
| 2026-05-04 14:17 | 35.04451 | -89.97062 | 335 ft | 32 kts | 7° |
| 2026-05-04 14:17 | 35.04863 | -89.97068 | 335 ft | 27 kts | 359° |
| 2026-05-04 14:18 | 35.05044 | -89.97065 | 335 ft | 25 kts | 7° |
| 2026-05-04 14:18 | 35.05365 | -89.97003 | 335 ft | 22 kts | 9° |
| 2026-05-04 14:19 | 35.05640 | -89.96951 | 335 ft | 19 kts | 9° |
| 2026-05-04 14:19 | 35.05775 | -89.96926 | 333 ft | 20 kts | 9° |
| 2026-05-04 14:19 | 35.05898 | -89.96890 | 334 ft | 13 kts | 24° |
| 2026-05-04 14:19 | 35.05978 | -89.96877 | 335 ft | 10 kts | 1° |
| 2026-05-04 14:20 | 35.05995 | -89.96876 | 335 ft | 0 kts | 1° |